sensor_id;sensor_type;location;lat;lon;timestamp;pressure;altitude;pressure_sealevel;temperature;humidity
67099;BME280;54288;53.046;5.668;2022-12-11T00:01:33;101265.53;;;0.61;100.00
67099;BME280;54288;53.046;5.668;2022-12-11T00:03:59;101258.59;;;0.59;100.00
67099;BME280;54288;53.046;5.668;2022-12-11T00:06:24;101254.34;;;0.61;100.00
67099;BME280;54288;53.046;5.668;2022-12-11T00:08:52;101248.34;;;0.60;100.00
67099;BME280;54288;53.046;5.668;2022-12-11T00:11:20;101249.28;;;0.64;100.00
67099;BME280;54288;53.046;5.668;2022-12-11T00:13:46;101245.81;;;0.63;100.00
67099;BME280;54288;53.046;5.668;2022-12-11T00:16:14;101247.53;;;0.63;100.00
67099;BME280;54288;53.046;5.668;2022-12-11T00:18:40;101246.66;;;0.62;100.00
67099;BME280;54288;53.046;5.668;2022-12-11T00:21:09;101244.03;;;0.61;100.00
67099;BME280;54288;53.046;5.668;2022-12-11T00:23:36;101258.78;;;0.66;100.00
67099;BME280;54288;53.046;5.668;2022-12-11T00:26:11;101248.41;;;0.63;100.00
67099;BME280;54288;53.046;5.668;2022-12-11T00:28:37;101243.25;;;0.63;100.00
67099;BME280;54288;53.046;5.668;2022-12-11T00:31:09;101249.34;;;0.67;100.00
67099;BME280;54288;53.046;5.668;2022-12-11T00:33:35;101258.00;;;0.69;100.00
67099;BME280;54288;53.046;5.668;2022-12-11T00:36:01;101251.91;;;0.67;100.00
67099;BME280;54288;53.046;5.668;2022-12-11T00:38:27;101242.38;;;0.63;100.00
67099;BME280;54288;53.046;5.668;2022-12-11T00:40:57;101258.00;;;0.69;100.00
67099;BME280;54288;53.046;5.668;2022-12-11T00:43:23;101250.28;;;0.70;100.00
67099;BME280;54288;53.046;5.668;2022-12-11T00:45:49;101247.59;;;0.66;100.00
67099;BME280;54288;53.046;5.668;2022-12-11T00:48:14;101256.28;;;0.69;100.00
67099;BME280;54288;53.046;5.668;2022-12-11T00:50:40;101258.06;;;0.72;100.00
67099;BME280;54288;53.046;5.668;2022-12-11T00:53:06;101246.91;;;0.71;100.00
67099;BME280;54288;53.046;5.668;2022-12-11T00:55:36;101251.25;;;0.74;100.00
67099;BME280;54288;53.046;5.668;2022-12-11T00:58:02;101247.81;;;0.73;100.00
67099;BME280;54288;53.046;5.668;2022-12-11T01:00:28;101238.34;;;0.72;100.00
67099;BME280;54288;53.046;5.668;2022-12-11T01:02:54;101247.94;;;0.79;100.00
67099;BME280;54288;53.046;5.668;2022-12-11T01:05:20;101250.63;;;0.82;100.00
67099;BME280;54288;53.046;5.668;2022-12-11T01:07:45;101243.69;;;0.81;100.00
67099;BME280;54288;53.046;5.668;2022-12-11T01:10:12;101249.84;;;0.86;100.00
67099;BME280;54288;53.046;5.668;2022-12-11T01:12:50;101248.19;;;0.88;100.00
67099;BME280;54288;53.046;5.668;2022-12-11T01:15:18;101245.63;;;0.88;100.00
67099;BME280;54288;53.046;5.668;2022-12-11T01:17:44;101250.84;;;0.91;100.00
67099;BME280;54288;53.046;5.668;2022-12-11T01:20:10;101247.34;;;0.89;100.00
67099;BME280;54288;53.046;5.668;2022-12-11T01:22:35;101256.88;;;0.93;100.00
67099;BME280;54288;53.046;5.668;2022-12-11T01:25:01;101250.03;;;0.94;100.00
67099;BME280;54288;53.046;5.668;2022-12-11T01:27:27;101259.50;;;0.95;100.00
67099;BME280;54288;53.046;5.668;2022-12-11T01:29:53;101255.16;;;0.92;100.00
67099;BME280;54288;53.046;5.668;2022-12-11T01:32:18;101254.41;;;0.96;100.00
67099;BME280;54288;53.046;5.668;2022-12-11T01:34:44;101253.59;;;0.99;100.00
67099;BME280;54288;53.046;5.668;2022-12-11T01:37:09;101263.03;;;0.98;100.00
67099;BME280;54288;53.046;5.668;2022-12-11T01:39:35;101263.16;;;1.03;100.00
67099;BME280;54288;53.046;5.668;2022-12-11T01:42:03;101258.06;;;1.06;100.00
67099;BME280;54288;53.046;5.668;2022-12-11T01:46:54;101269.31;;;1.09;100.00
67099;BME280;54288;53.046;5.668;2022-12-11T01:49:23;101266.81;;;1.12;100.00
67099;BME280;54288;53.046;5.668;2022-12-11T01:52:09;101257.34;;;1.11;100.00
67099;BME280;54288;53.046;5.668;2022-12-11T01:54:36;101265.16;;;1.14;100.00
67099;BME280;54288;53.046;5.668;2022-12-11T01:57:06;101254.78;;;1.13;100.00
67099;BME280;54288;53.046;5.668;2022-12-11T01:59:36;101260.94;;;1.18;100.00
67099;BME280;54288;53.046;5.668;2022-12-11T02:02:07;101260.94;;;1.18;100.00
67099;BME280;54288;53.046;5.668;2022-12-11T02:04:38;101247.13;;;1.16;100.00
67099;BME280;54288;53.046;5.668;2022-12-11T02:07:04;101254.03;;;1.17;100.00
67099;BME280;54288;53.046;5.668;2022-12-11T02:09:33;101258.47;;;1.22;100.00
67099;BME280;54288;53.046;5.668;2022-12-11T02:20:35;101246.47;;;1.24;100.00
67099;BME280;54288;53.046;5.668;2022-12-11T02:23:28;101240.44;;;1.22;100.00
67099;BME280;54288;53.046;5.668;2022-12-11T02:26:24;101246.53;;;1.26;100.00
67099;BME280;54288;53.046;5.668;2022-12-11T02:28:59;101245.69;;;1.27;100.00
67099;BME280;54288;53.046;5.668;2022-12-11T02:36:44;101234.53;;;1.28;100.00
67099;BME280;54288;53.046;5.668;2022-12-11T02:39:15;101229.22;;;1.22;100.00
67099;BME280;54288;53.046;5.668;2022-12-11T02:41:48;101229.28;;;1.25;100.00
67099;BME280;54288;53.046;5.668;2022-12-11T02:44:20;101231.03;;;1.26;100.00
67099;BME280;54288;53.046;5.668;2022-12-11T02:46:46;101234.44;;;1.23;100.00
67099;BME280;54288;53.046;5.668;2022-12-11T02:49:12;101239.59;;;1.25;100.00
67099;BME280;54288;53.046;5.668;2022-12-11T02:51:41;101230.91;;;1.21;100.00
67099;BME280;54288;53.046;5.668;2022-12-11T02:54:19;101221.44;;;1.20;100.00
67099;BME280;54288;53.046;5.668;2022-12-11T02:57:05;101223.19;;;1.21;100.00
67099;BME280;54288;53.046;5.668;2022-12-11T02:59:37;101219.75;;;1.21;100.00
67099;BME280;54288;53.046;5.668;2022-12-11T03:02:04;101236.91;;;1.20;100.00
67099;BME280;54288;53.046;5.668;2022-12-11T03:04:33;101230.72;;;1.12;100.00
67099;BME280;54288;53.046;5.668;2022-12-11T03:07:05;101227.31;;;1.13;100.00
67099;BME280;54288;53.046;5.668;2022-12-11T03:09:45;101221.13;;;1.07;100.00
67099;BME280;54288;53.046;5.668;2022-12-11T03:12:14;101214.22;;;1.06;100.00
67099;BME280;54288;53.046;5.668;2022-12-11T03:14:42;101224.63;;;1.10;100.00
67099;BME280;54288;53.046;5.668;2022-12-11T03:17:18;101221.91;;;1.04;100.00
67099;BME280;54288;53.046;5.668;2022-12-11T03:22:16;101215.81;;;1.01;100.00
67099;BME280;54288;53.046;5.668;2022-12-11T03:24:52;101208.00;;;0.96;100.00
67099;BME280;54288;53.046;5.668;2022-12-11T03:27:25;101221.03;;;1.02;100.00
67099;BME280;54288;53.046;5.668;2022-12-11T03:32:37;101204.72;;;1.03;100.00
67099;BME280;54288;53.046;5.668;2022-12-11T03:37:38;101209.88;;;1.03;100.00
67099;BME280;54288;53.046;5.668;2022-12-11T03:40:11;101195.16;;;0.98;100.00
67099;BME280;54288;53.046;5.668;2022-12-11T03:42:42;101214.16;;;1.03;100.00
67099;BME280;54288;53.046;5.668;2022-12-11T03:45:12;101208.13;;;1.02;100.00
67099;BME280;54288;53.046;5.668;2022-12-11T03:47:41;101206.41;;;1.01;100.00
67099;BME280;54288;53.046;5.668;2022-12-11T03:50:11;101203.69;;;0.95;100.00
67099;BME280;54288;53.046;5.668;2022-12-11T03:52:41;101206.34;;;1.00;100.00
67099;BME280;54288;53.046;5.668;2022-12-11T03:55:09;101203.72;;;0.98;100.00
67099;BME280;54288;53.046;5.668;2022-12-11T03:57:37;101202.97;;;1.02;100.00
67099;BME280;54288;53.046;5.668;2022-12-11T04:00:05;101200.25;;;0.96;100.00
67099;BME280;54288;53.046;5.668;2022-12-11T04:02:37;101197.69;;;0.96;100.00
67099;BME280;54288;53.046;5.668;2022-12-11T04:05:03;101196.00;;;0.98;100.00
67099;BME280;54288;53.046;5.668;2022-12-11T04:07:29;101188.22;;;0.95;100.00
67099;BME280;54288;53.046;5.668;2022-12-11T04:09:55;101187.38;;;0.96;100.00
67099;BME280;54288;53.046;5.668;2022-12-11T04:12:21;101196.94;;;1.02;100.00
67099;BME280;54288;53.046;5.668;2022-12-11T04:14:47;101187.47;;;1.01;100.00
67099;BME280;54288;53.046;5.668;2022-12-11T04:17:30;101195.34;;;1.07;100.00
67099;BME280;54288;53.046;5.668;2022-12-11T04:20:15;101206.50;;;1.06;100.00
67099;BME280;54288;53.046;5.668;2022-12-11T04:23:02;101198.66;;;1.01;100.00
67099;BME280;54288;53.046;5.668;2022-12-11T04:25:46;101209.13;;;1.07;100.00
67099;BME280;54288;53.046;5.668;2022-12-11T04:28:12;101206.56;;;1.09;100.00
67099;BME280;54288;53.046;5.668;2022-12-11T04:30:37;101206.66;;;1.13;100.00
67099;BME280;54288;53.046;5.668;2022-12-11T04:33:03;101206.66;;;1.13;100.00
67099;BME280;54288;53.046;5.668;2022-12-11T04:35:29;101220.47;;;1.15;100.00
67099;BME280;54288;53.046;5.668;2022-12-11T04:37:54;101204.09;;;1.13;100.00
67099;BME280;54288;53.046;5.668;2022-12-11T04:40:20;101213.66;;;1.17;100.00
67099;BME280;54288;53.046;5.668;2022-12-11T04:42:46;101211.88;;;1.16;100.00
67099;BME280;54288;53.046;5.668;2022-12-11T04:45:12;101209.34;;;1.18;100.00
67099;BME280;54288;53.046;5.668;2022-12-11T04:47:39;101206.84;;;1.21;100.00
67099;BME280;54288;53.046;5.668;2022-12-11T04:50:09;101203.38;;;1.20;100.00
67099;BME280;54288;53.046;5.668;2022-12-11T04:52:35;101193.91;;;1.19;100.00
67099;BME280;54288;53.046;5.668;2022-12-11T04:55:06;101194.00;;;1.24;100.00
67099;BME280;54288;53.046;5.668;2022-12-11T04:57:32;101198.31;;;1.23;100.00
67099;BME280;54288;53.046;5.668;2022-12-11T04:59:58;101196.56;;;1.22;100.00
67099;BME280;54288;53.046;5.668;2022-12-11T05:02:25;101192.28;;;1.23;100.00
67099;BME280;54288;53.046;5.668;2022-12-11T05:04:51;101192.31;;;1.24;100.00
67099;BME280;54288;53.046;5.668;2022-12-11T05:07:17;101192.19;;;1.18;100.00
67099;BME280;54288;53.046;5.668;2022-12-11T05:09:42;101181.81;;;1.17;100.00
67099;BME280;54288;53.046;5.668;2022-12-11T05:12:08;101183.56;;;1.18;100.00
67099;BME280;54288;53.046;5.668;2022-12-11T05:14:34;101174.03;;;1.15;100.00
67099;BME280;54288;53.046;5.668;2022-12-11T05:16:59;101162.88;;;1.15;100.00
67099;BME280;54288;53.046;5.668;2022-12-11T05:19:25;101162.06;;;1.17;100.00
67099;BME280;54288;53.046;5.668;2022-12-11T05:21:51;101174.03;;;1.15;100.00
67099;BME280;54288;53.046;5.668;2022-12-11T05:24:17;101174.88;;;1.14;100.00
67099;BME280;54288;53.046;5.668;2022-12-11T05:26:43;101167.16;;;1.14;100.00
67099;BME280;54288;53.046;5.668;2022-12-11T05:29:09;101162.03;;;1.16;100.00
67099;BME280;54288;53.046;5.668;2022-12-11T05:31:34;101157.72;;;1.15;100.00
67099;BME280;54288;53.046;5.668;2022-12-11T05:34:00;101161.16;;;1.15;100.00
67099;BME280;54288;53.046;5.668;2022-12-11T05:36:28;101164.66;;;1.17;100.00
67099;BME280;54288;53.046;5.668;2022-12-11T05:38:56;101163.84;;;1.20;100.00
67099;BME280;54288;53.046;5.668;2022-12-11T05:41:24;101155.19;;;1.18;100.00
67099;BME280;54288;53.046;5.668;2022-12-11T05:43:50;101159.50;;;1.19;100.00
67099;BME280;54288;53.046;5.668;2022-12-11T05:46:22;101156.97;;;1.20;100.00
67099;BME280;54288;53.046;5.668;2022-12-11T05:48:51;101135.34;;;1.15;100.00
67099;BME280;54288;53.046;5.668;2022-12-11T05:51:17;101146.66;;;1.20;100.00
67099;BME280;54288;53.046;5.668;2022-12-11T05:53:45;101145.78;;;1.20;100.00
67099;BME280;54288;53.046;5.668;2022-12-11T05:56:23;101145.75;;;1.18;100.00
67099;BME280;54288;53.046;5.668;2022-12-11T05:58:50;101138.88;;;1.17;100.00
67099;BME280;54288;53.046;5.668;2022-12-11T06:01:23;101150.13;;;1.21;100.00
67099;BME280;54288;53.046;5.668;2022-12-11T06:03:48;101152.59;;;1.18;100.00
67099;BME280;54288;53.046;5.668;2022-12-11T06:06:14;101139.63;;;1.13;100.00
67099;BME280;54288;53.046;5.668;2022-12-11T06:08:40;101155.31;;;1.22;100.00
67099;BME280;54288;53.046;5.668;2022-12-11T06:11:06;101155.31;;;1.22;100.00
67099;BME280;54288;53.046;5.668;2022-12-11T06:13:32;101141.31;;;1.11;100.00
67099;BME280;54288;53.046;5.668;2022-12-11T06:16:03;101160.44;;;1.21;100.00
67099;BME280;54288;53.046;5.668;2022-12-11T06:18:29;101156.97;;;1.20;100.00
67099;BME280;54288;53.046;5.668;2022-12-11T06:20:55;101154.44;;;1.22;100.00
67099;BME280;54288;53.046;5.668;2022-12-11T06:23:21;101152.72;;;1.22;100.00
67099;BME280;54288;53.046;5.668;2022-12-11T06:25:46;101144.91;;;1.19;100.00
67099;BME280;54288;53.046;5.668;2022-12-11T06:28:12;101155.34;;;1.25;100.00
67099;BME280;54288;53.046;5.668;2022-12-11T06:30:37;101149.19;;;1.19;100.00
67099;BME280;54288;53.046;5.668;2022-12-11T06:33:03;101153.53;;;1.21;100.00
67099;BME280;54288;53.046;5.668;2022-12-11T06:35:29;101156.13;;;1.21;100.00
67099;BME280;54288;53.046;5.668;2022-12-11T06:37:55;101163.09;;;1.25;100.00
67099;BME280;54288;53.046;5.668;2022-12-11T06:40:21;101157.75;;;1.18;100.00
67099;BME280;54288;53.046;5.668;2022-12-11T06:42:47;101169.94;;;1.23;100.00
67099;BME280;54288;53.046;5.668;2022-12-11T06:45:12;101168.16;;;1.21;100.00
67099;BME280;54288;53.046;5.668;2022-12-11T06:47:38;101179.38;;;1.23;100.00
67099;BME280;54288;53.046;5.668;2022-12-11T06:50:03;101168.16;;;1.21;100.00
67099;BME280;54288;53.046;5.668;2022-12-11T06:52:29;101164.75;;;1.22;100.00
67099;BME280;54288;53.046;5.668;2022-12-11T06:54:55;101167.28;;;1.20;100.00
67099;BME280;54288;53.046;5.668;2022-12-11T06:57:21;101165.63;;;1.22;100.00
67099;BME280;54288;53.046;5.668;2022-12-11T06:59:47;101160.47;;;1.22;100.00
67099;BME280;54288;53.046;5.668;2022-12-11T07:02:14;101162.13;;;1.20;100.00
67099;BME280;54288;53.046;5.668;2022-12-11T07:04:41;101170.69;;;1.19;100.00
67099;BME280;54288;53.046;5.668;2022-12-11T07:07:08;101176.75;;;1.21;100.00
67099;BME280;54288;53.046;5.668;2022-12-11T07:09:34;101175.91;;;1.21;100.00
67099;BME280;54288;53.046;5.668;2022-12-11T07:12:00;101183.50;;;1.15;100.00
67099;BME280;54288;53.046;5.668;2022-12-11T07:14:28;101180.94;;;1.15;100.00
67099;BME280;54288;53.046;5.668;2022-12-11T07:16:55;101192.13;;;1.17;100.00
67099;BME280;54288;53.046;5.668;2022-12-11T07:19:21;101179.16;;;1.12;100.00
67099;BME280;54288;53.046;5.668;2022-12-11T07:21:46;101187.78;;;1.14;100.00
67099;BME280;54288;53.046;5.668;2022-12-11T07:24:12;101187.75;;;1.13;100.00
67099;BME280;54288;53.046;5.668;2022-12-11T07:26:38;101180.81;;;1.10;100.00
67099;BME280;54288;53.046;5.668;2022-12-11T07:29:03;101203.34;;;1.17;100.00
67099;BME280;54288;53.046;5.668;2022-12-11T07:31:29;101191.16;;;1.12;100.00
67099;BME280;54288;53.046;5.668;2022-12-11T07:33:58;101190.31;;;1.11;100.00
67099;BME280;54288;53.046;5.668;2022-12-11T07:36:25;101186.88;;;1.12;100.00
67099;BME280;54288;53.046;5.668;2022-12-11T07:38:52;101194.75;;;1.18;100.00
67099;BME280;54288;53.046;5.668;2022-12-11T07:41:19;101197.34;;;1.18;100.00
67099;BME280;54288;53.046;5.668;2022-12-11T07:43:51;101191.25;;;1.16;100.00
67099;BME280;54288;53.046;5.668;2022-12-11T07:46:20;101184.44;;;1.18;100.00
67099;BME280;54288;53.046;5.668;2022-12-11T07:48:47;101183.50;;;1.16;100.00
67099;BME280;54288;53.046;5.668;2022-12-11T07:51:14;101181.91;;;1.20;100.00
67099;BME280;54288;53.046;5.668;2022-12-11T07:53:44;101193.91;;;1.19;100.00
67099;BME280;54288;53.046;5.668;2022-12-11T07:56:10;101181.81;;;1.17;100.00
67099;BME280;54288;53.046;5.668;2022-12-11T07:58:36;101181.88;;;1.18;100.00
67099;BME280;54288;53.046;5.668;2022-12-11T08:01:11;101185.28;;;1.19;100.00
67099;BME280;54288;53.046;5.668;2022-12-11T08:03:38;101192.19;;;1.18;100.00
67099;BME280;54288;53.046;5.668;2022-12-11T08:06:04;101201.75;;;1.24;100.00
67099;BME280;54288;53.046;5.668;2022-12-11T08:08:31;101177.50;;;1.16;100.00
67099;BME280;54288;53.046;5.668;2022-12-11T08:11:01;101198.22;;;1.20;100.00
67099;BME280;54288;53.046;5.668;2022-12-11T08:13:27;101203.47;;;1.23;100.00
67099;BME280;54288;53.046;5.668;2022-12-11T08:15:53;101190.56;;;1.23;100.00
67099;BME280;54288;53.046;5.668;2022-12-11T08:18:18;101200.06;;;1.24;100.00
67099;BME280;54288;53.046;5.668;2022-12-11T08:20:44;101197.44;;;1.23;100.00
67099;BME280;54288;53.046;5.668;2022-12-11T08:23:10;101200.91;;;1.23;100.00
67099;BME280;54288;53.046;5.668;2022-12-11T08:25:35;101195.69;;;1.22;100.00
67099;BME280;54288;53.046;5.668;2022-12-11T08:28:02;101212.19;;;1.28;100.00
67099;BME280;54288;53.046;5.668;2022-12-11T08:30:29;101202.69;;;1.27;100.00
67099;BME280;54288;53.046;5.668;2022-12-11T08:32:55;101207.03;;;1.28;100.00
67099;BME280;54288;53.046;5.668;2022-12-11T08:35:20;101207.03;;;1.28;100.00
67099;BME280;54288;53.046;5.668;2022-12-11T08:37:46;101212.19;;;1.28;100.00
67099;BME280;54288;53.046;5.668;2022-12-11T08:40:11;101207.03;;;1.30;100.00
67099;BME280;54288;53.046;5.668;2022-12-11T08:42:38;101194.09;;;1.27;100.00
67099;BME280;54288;53.046;5.668;2022-12-11T08:45:04;101200.22;;;1.32;100.00
67099;BME280;54288;53.046;5.668;2022-12-11T08:47:30;101195.91;;;1.32;100.00
67099;BME280;54288;53.046;5.668;2022-12-11T08:49:56;101206.25;;;1.32;100.00
67099;BME280;54288;53.046;5.668;2022-12-11T08:52:22;101206.38;;;1.38;100.00
67099;BME280;54288;53.046;5.668;2022-12-11T08:54:47;101198.59;;;1.35;100.00
67099;BME280;54288;53.046;5.668;2022-12-11T08:57:13;101196.84;;;1.36;100.00
67099;BME280;54288;53.046;5.668;2022-12-11T08:59:39;101195.25;;;1.41;100.00
67099;BME280;54288;53.046;5.668;2022-12-11T09:02:05;101193.47;;;1.38;100.00
67099;BME280;54288;53.046;5.668;2022-12-11T09:04:31;101182.34;;;1.41;100.00
67099;BME280;54288;53.046;5.668;2022-12-11T09:06:57;101186.72;;;1.43;100.00
67099;BME280;54288;53.046;5.668;2022-12-11T09:09:23;101175.59;;;1.46;100.00
67099;BME280;54288;53.046;5.668;2022-12-11T09:11:48;101175.53;;;1.44;100.00
67099;BME280;54288;53.046;5.668;2022-12-11T09:14:14;101174.72;;;1.45;100.00
67099;BME280;54288;53.046;5.668;2022-12-11T09:16:40;101188.56;;;1.50;100.00
67099;BME280;54288;53.046;5.668;2022-12-11T09:19:10;101174.84;;;1.51;100.00
67099;BME280;54288;53.046;5.668;2022-12-11T09:21:37;101168.91;;;1.55;100.00
67099;BME280;54288;53.046;5.668;2022-12-11T09:24:03;101183.69;;;1.62;100.00
67099;BME280;54288;53.046;5.668;2022-12-11T09:26:29;101166.31;;;1.55;100.00
67099;BME280;54288;53.046;5.668;2022-12-11T09:28:56;101163.72;;;1.54;100.00
67099;BME280;54288;53.046;5.668;2022-12-11T09:31:28;101168.97;;;1.58;100.00
67099;BME280;54288;53.046;5.668;2022-12-11T09:34:05;101172.44;;;1.60;100.00
67099;BME280;54288;53.046;5.668;2022-12-11T09:36:32;101165.50;;;1.56;100.00
67099;BME280;54288;53.046;5.668;2022-12-11T09:39:03;101175.78;;;1.55;100.00
67099;BME280;54288;53.046;5.668;2022-12-11T09:44:31;101180.16;;;1.59;100.00
67099;BME280;54288;53.046;5.668;2022-12-11T09:46:59;101181.03;;;1.59;100.00
67099;BME280;54288;53.046;5.668;2022-12-11T09:49:41;101168.91;;;1.55;100.00
67099;BME280;54288;53.046;5.668;2022-12-11T09:52:30;101193.06;;;1.59;100.00
67099;BME280;54288;53.046;5.668;2022-12-11T09:54:59;101181.03;;;1.59;100.00
67099;BME280;54288;53.046;5.668;2022-12-11T10:00:00;101172.50;;;1.62;100.00
67099;BME280;54288;53.046;5.668;2022-12-11T10:11:21;101175.28;;;1.72;100.00
67099;BME280;54288;53.046;5.668;2022-12-11T10:14:05;101170.22;;;1.78;100.00
67099;BME280;54288;53.046;5.668;2022-12-11T10:16:46;101173.75;;;1.82;100.00
67099;BME280;54288;53.046;5.668;2022-12-11T10:19:20;101173.66;;;1.77;100.00
67099;BME280;54288;53.046;5.668;2022-12-11T10:21:49;101145.88;;;1.64;100.00
67099;BME280;54288;53.046;5.668;2022-12-11T10:24:38;101172.03;;;1.82;100.00
67099;BME280;54288;53.046;5.668;2022-12-11T10:27:28;101171.16;;;1.80;100.00
67099;BME280;54288;53.046;5.668;2022-12-11T10:35:45;101169.66;;;1.91;100.00
67099;BME280;54288;53.046;5.668;2022-12-11T10:38:28;101170.47;;;1.90;100.00
67099;BME280;54288;53.046;5.668;2022-12-11T10:41:17;101173.03;;;1.90;100.00
67099;BME280;54288;53.046;5.668;2022-12-11T10:43:46;101171.19;;;1.83;100.00
67099;BME280;54288;53.046;5.668;2022-12-11T10:48:50;101164.09;;;1.73;100.00
67099;BME280;54288;53.046;5.668;2022-12-11T10:51:35;101170.22;;;1.77;100.00
67099;BME280;54288;53.046;5.668;2022-12-11T10:54:26;101168.47;;;1.76;100.00
67099;BME280;54288;53.046;5.668;2022-12-11T10:56:54;101158.16;;;1.77;100.00
67099;BME280;54288;53.046;5.668;2022-12-11T10:59:37;101157.41;;;1.81;100.00
67099;BME280;54288;53.046;5.668;2022-12-11T11:04:42;101164.44;;;1.90;100.00
67099;BME280;54288;53.046;5.668;2022-12-11T11:07:20;101159.28;;;1.90;100.00
67099;BME280;54288;53.046;5.668;2022-12-11T11:09:46;101161.78;;;1.85;100.00
67099;BME280;54288;53.046;5.668;2022-12-11T11:14:45;101150.66;;;1.89;100.00
67099;BME280;54288;53.046;5.668;2022-12-11T11:17:15;101143.88;;;1.94;100.00
67099;BME280;54288;53.046;5.668;2022-12-11T11:19:46;101149.06;;;1.96;100.00
67099;BME280;54288;53.046;5.668;2022-12-11T11:22:18;101149.00;;;1.91;100.00
67099;BME280;54288;53.046;5.668;2022-12-11T11:24:52;101139.47;;;1.90;100.00
67099;BME280;54288;53.046;5.668;2022-12-11T11:27:37;101147.25;;;1.92;100.00
67099;BME280;54288;53.046;5.668;2022-12-11T11:30:26;101152.47;;;1.93;100.00
67099;BME280;54288;53.046;5.668;2022-12-11T11:33:11;101147.22;;;1.90;100.00
67099;BME280;54288;53.046;5.668;2022-12-11T11:35:37;101143.03;;;1.95;100.00
67099;BME280;54288;53.046;5.668;2022-12-11T11:38:16;101142.22;;;1.96;100.00
67099;BME280;54288;53.046;5.668;2022-12-11T11:41:05;101138.78;;;1.97;100.00
67099;BME280;54288;53.046;5.668;2022-12-11T11:43:43;101139.75;;;2.02;100.00
67099;BME280;54288;53.046;5.668;2022-12-11T11:51:58;101136.31;;;2.03;100.00
67099;BME280;54288;53.046;5.668;2022-12-11T11:54:29;101143.38;;;2.15;100.00
67099;BME280;54288;53.046;5.668;2022-12-11T11:56:58;101138.16;;;2.10;100.00
67099;BME280;54288;53.046;5.668;2022-12-11T11:59:41;101137.25;;;2.10;100.00
67099;BME280;54288;53.046;5.668;2022-12-11T12:02:14;101128.72;;;2.12;100.00
67099;BME280;54288;53.046;5.668;2022-12-11T12:04:41;101131.28;;;2.12;100.00
67099;BME280;54288;53.046;5.668;2022-12-11T12:10:15;101129.63;;;2.16;100.00
67099;BME280;54288;53.046;5.668;2022-12-11T12:12:52;101135.72;;;2.18;100.00
67099;BME280;54288;53.046;5.668;2022-12-11T12:18:24;101129.53;;;2.10;100.00
67099;BME280;54288;53.046;5.668;2022-12-11T12:26:27;101127.88;;;2.13;100.00
67099;BME280;54288;53.046;5.668;2022-12-11T12:32:08;101126.22;;;2.18;100.00
67099;BME280;54288;53.046;5.668;2022-12-11T12:40:23;101121.13;;;2.21;100.00
67099;BME280;54288;53.046;5.668;2022-12-11T12:46:20;101124.31;;;2.07;100.00
67099;BME280;54288;53.046;5.668;2022-12-11T12:48:23;101121.03;;;2.15;100.00
67099;BME280;54288;53.046;5.668;2022-12-11T12:50:50;101128.00;;;2.19;100.00
67099;BME280;54288;53.046;5.668;2022-12-11T12:53:23;101126.28;;;2.21;100.00
67099;BME280;54288;53.046;5.668;2022-12-11T12:55:52;101117.69;;;2.22;100.00
67099;BME280;54288;53.046;5.668;2022-12-11T12:58:30;101120.22;;;2.18;100.00
67099;BME280;54288;53.046;5.668;2022-12-11T13:01:19;101124.28;;;2.05;100.00
67099;BME280;54288;53.046;5.668;2022-12-11T13:06:15;101125.97;;;2.03;100.00
67099;BME280;54288;53.046;5.668;2022-12-11T13:08:52;101126.69;;;1.95;100.00
67099;BME280;54288;53.046;5.668;2022-12-11T13:11:20;101124.00;;;1.89;100.00
67099;BME280;54288;53.046;5.668;2022-12-11T13:16:45;101124.00;;;1.90;100.00
67099;BME280;54288;53.046;5.668;2022-12-11T13:24:47;101122.31;;;1.92;100.00
67099;BME280;54288;53.046;5.668;2022-12-11T13:27:25;101122.22;;;1.86;100.00
67099;BME280;54288;53.046;5.668;2022-12-11T13:32:41;101126.50;;;1.86;100.00
67099;BME280;54288;53.046;5.668;2022-12-11T13:35:14;101125.66;;;1.87;100.00
67099;BME280;54288;53.046;5.668;2022-12-11T13:37:45;101127.31;;;1.83;100.00
67099;BME280;54288;53.046;5.668;2022-12-11T13:40:18;101133.34;;;1.84;100.00
67099;BME280;54288;53.046;5.668;2022-12-11T13:42:58;101149.66;;;1.81;100.00
67099;BME280;54288;53.046;5.668;2022-12-11T13:48:21;101149.69;;;1.83;100.00
67099;BME280;54288;53.046;5.668;2022-12-11T13:50:49;101150.38;;;1.74;100.00
67099;BME280;54288;53.046;5.668;2022-12-11T13:53:17;101160.72;;;1.74;100.00
67099;BME280;54288;53.046;5.668;2022-12-11T13:55:43;101150.28;;;1.70;100.00
67099;BME280;54288;53.046;5.668;2022-12-11T13:58:17;101142.44;;;1.65;100.00
67099;BME280;54288;53.046;5.668;2022-12-11T14:00:55;101157.19;;;1.71;100.00
67099;BME280;54288;53.046;5.668;2022-12-11T14:03:24;101148.50;;;1.67;100.00
67099;BME280;54288;53.046;5.668;2022-12-11T14:05:50;101152.00;;;1.69;100.00
67099;BME280;54288;53.046;5.668;2022-12-11T14:08:21;101149.34;;;1.65;100.00
67099;BME280;54288;53.046;5.668;2022-12-11T14:10:54;101144.13;;;1.63;100.00
67099;BME280;54288;53.046;5.668;2022-12-11T14:13:26;101160.56;;;1.67;100.00
67099;BME280;54288;53.046;5.668;2022-12-11T14:15:55;101137.97;;;1.57;100.00
67099;BME280;54288;53.046;5.668;2022-12-11T14:18:28;101144.88;;;1.58;100.00
67099;BME280;54288;53.046;5.668;2022-12-11T14:21:00;101152.59;;;1.56;100.00
67099;BME280;54288;53.046;5.668;2022-12-11T14:23:29;101146.59;;;1.57;100.00
67099;BME280;54288;53.046;5.668;2022-12-11T14:25:57;101151.69;;;1.54;100.00
67099;BME280;54288;53.046;5.668;2022-12-11T14:28:26;101148.97;;;1.48;100.00
67099;BME280;54288;53.046;5.668;2022-12-11T14:30:55;101149.81;;;1.47;100.00
67099;BME280;54288;53.046;5.668;2022-12-11T14:33:26;101149.84;;;1.49;100.00
67099;BME280;54288;53.046;5.668;2022-12-11T14:35:55;101146.34;;;1.47;100.00
67099;BME280;54288;53.046;5.668;2022-12-11T14:38:30;101139.47;;;1.46;100.00
67099;BME280;54288;53.046;5.668;2022-12-11T14:41:12;101154.13;;;1.48;100.00